Предлагаем Вашему вниманию английскую версию страницы: AUTOTAF.ME 23867 - aviation weather forecast Lar'yak

AUTOTAF 23867 - авиапрогноз Ларьяк

Сегодня рассвет 01:13 UTC, восход солнца 02:00 UTC,
местный полдень 06:22 UTC, заход солнца 10:44 UTC,
наступление темноты 11:31 UTC.

Краткий прогноз 23867 на 9 часов

AUTOTAF.ME 23867 292000Z 2921/3006 VRB02MPS 5000 BR OVC002    
  FM300000 VRB02MPS 2000 BR BKN003 
  FM300300 VRB02MPS 9999 -SN BKN002 
  FM300600 VRB02MPS 3000 BR BKN005

Детальный прогноз 23867 на 24 часа

AUTOTAF.ME 23867 292000Z 2921/3021 VRB02MPS 5000 BR OVC002 TXM01/3021Z TNM10/3000Z  
  FM300000 VRB02MPS 2000 BR BKN003 
  FM300300 VRB02MPS 9999 -SN BKN002 
  FM300600 VRB02MPS 3000 BR BKN005 
  FM300900 VRB02MPS 1400 SN BR OVC003 
  FM301200 VRB02MPS 3000 -SN BR OVC001  
  FM301800 VRB02MPS 2000 SN BR BKN001 
  FM302100 VRB02MPS 1000 BR OVC001

Подробный табличный прогноз

Время (UTC) miniAUTOTAF на 3 ч WX FZLVL
M AGL
ICE TURB Т
(°С)
Тd
(°С)
f(%) QNH
(гПа)
WIND/T
18 16003MPS 1500 SN BR BKN003 SN BR SFC MOD FL10/FL20 MOD SFC/FL20 -9 -10 92 1014 ...
21 VRB02MPS 5000 BR OVC002 BR SFC MOD FL10/FL20 MOD SFC/FL20 -9 -10 96 1013 ...
30.10.2020
00 VRB02MPS 2000 BR BKN003 BR SFC FBL FL10/FL110 -10 -10 97 1015 ...
03 VRB02MPS 9999 -SN BKN002 -SN SFC FBL FL10/FL90 -8 -9 95 1016 ...
06 VRB02MPS 3000 BR BKN005 BR SFC MOD FL10/FL170 MOD SFC/FL20 -5 -7 88 1018 ...
09 VRB02MPS 1400 SN BR OVC003 SN BR SFC MOD FL190/FL200 MOD SFC/FL20 -4 -5 92 1018 ...
12 VRB02MPS 3000 -SN BR OVC001 -SN BR SFC FBL FL10/FL170 -5 -5 98 1020 ...
15 VRB02MPS 3000 -SN BR BKN001 -SN BR SFC FBL FL10/FL150 -5 -5 97 1021 ...
18 VRB02MPS 2000 SN BR BKN001 SN BR SFC FBL FL10/FL120 -3 -4 98 1022 ...
21 VRB02MPS 1000 BR OVC001 BR SFC FBL FL10/FL110 -1 -1 99 1022 ...
31.10.2020
00 VRB02MPS 1000 SN BR OVC001 SN BR 300 MOD FL50/FL170 0 -0 99 1023 ...
03 VRB02MPS 1000 BR OVC001 BR 720 MOD FL70/FL120 1 1 99 1022 ...
06 21003MPS 2000 RA BR OVC001 RA BR 1050 MOD FL40/FL50 2 2 99 1022 ...
09 21004MPS 3000 -RA BR OVC001 -RA BR 270 MOD FL170/FL180 1 1 97 1021 ...
12 20005G13MPS 3000 -RA BR OVC001 -RA BR 240 FBL FL20/FL170 1 1 96 1020 ...
15 20005G12MPS 5000 BR OVC004 BR 270 MOD FL120/FL150 MOD SFC/FL20 1 0 92 1018 ...


Широта 61.1°, долгота 80.3°, высота 55 м абс.
Средняя высота рельефа местности 87 м абс.
Прогнозы обновляются четыре раза в сутки: в 02, 08, 14, 20 ч всемирного времени.


Выбрать прогноз по другой модели Ларьяк
Онлайн-сводка гроз по Ларьяк (для РФ и ближнего зарубежья)
Карта фактических гроз в окрестностях Ларьяк
Динамические прогностические карты (ventusky.com)
Прогностическая карта высоты нижней границы облаков по Ларьяк (windy.com)
Выбрать другой город

Прогноз предназначен для личного научно-познавательного использования частными лицами
и не предназначен для принятия важных решений и выполнения реальных полётов воздушных судов

При копировании или ином использовании любых материалов данного сайта ссылка на © meteocenter.asia обязательна.

1.06/1.5